Time Sky Conditions Weather Temperature Dewpoint Relative Humidity Heat Index / Chill Factor Wind Visibility Rain
2021-12-02 03:00:05 mostly cloudy 50° 37° 60% West Southwest at 16 MPH with gusts at 29 MPH 10 mile(s)
2021-12-02 02:00:05 mostly cloudy 50° 37° 60% West Southwest at 16 MPH with gusts at 28 MPH 10 mile(s)
2021-12-02 01:00:05 mostly clear 51° 37° 58% Southwest at 18 MPH with gusts at 32 MPH 10 mile(s)
2021-12-02 00:00:04 mostly cloudy 49° 39° 68% Southwest at 16 MPH 10 mile(s)
2021-12-01 23:00:05 mostly cloudy 48° 40° 73% Southwest at 13 MPH 10 mile(s)
2021-12-01 22:00:05 mostly cloudy 49° 41° 73% Southwest at 14 MPH with gusts at 23 MPH 10 mile(s)
2021-12-01 21:00:05 mostly cloudy 47° 42° 83% Southwest at 13 MPH 10 mile(s)
2021-12-01 20:00:05 mostly cloudy 48° 43° 82% South Southwest at 12 MPH 10 mile(s)
2021-12-01 19:00:05 overcast 48° 43° 82% South Southwest at 12 MPH 10 mile(s)
2021-12-01 18:00:04 overcast 46° 42° 85% South Southwest at 8 MPH 9 mile(s)
2021-12-01 17:00:05 overcast 46° 41° 82% South Southwest at 7 MPH 10 mile(s)
2021-12-01 16:00:05 overcast 46° 41° 82% South Southwest at 7 MPH 9 mile(s)
2021-12-01 15:45:05 overcast 47° 41° 79% South Southwest at 8 MPH 9 mile(s)
2021-12-01 15:00:04 overcast 47° 40° 76% South Southwest at 10 MPH 10 mile(s)
2021-12-01 14:45:05 overcast 47° 40° 76% South Southwest at 9 MPH 10 mile(s)
2021-12-01 14:00:05 mostly cloudy 47° 40° 76% South at 13 MPH with gusts at 22 MPH 10 mile(s)
2021-12-01 13:45:05 overcast 46° 40° 79% South Southwest at 9 MPH 10 mile(s)
2021-12-01 13:00:05 overcast 45° 39° 79% South Southwest at 10 MPH 10 mile(s)
2021-12-01 12:30:04 overcast 45° 39° 79% South Southwest at 12 MPH with gusts at 20 MPH 10 mile(s)
2021-12-01 12:00:05 overcast 45° 39° 79% South Southwest at 13 MPH 10 mile(s)
2021-12-01 11:30:05 overcast 45° 39° 79% Southwest at 14 MPH with gusts at 20 MPH 10 mile(s)
2021-12-01 11:00:06 overcast 45° 39° 79% South Southwest at 13 MPH with gusts at 22 MPH 10 mile(s)
2021-12-01 10:45:04 mostly cloudy 45° 39° 79% South Southwest at 14 MPH 10 mile(s)
2021-12-01 10:00:06 mostly cloudy 44° 37° 76% South at 14 MPH with gusts at 22 MPH 10 mile(s) A trace
2021-12-01 09:00:04 overcast light rain 42° 33° 70% South at 7 MPH 9 mile(s) A trace
2021-12-01 08:00:05 overcast 41° 32° 70% South Southeast at 8 MPH 10 mile(s)
2021-12-01 07:00:04 overcast 41° 32° 70% South at 7 MPH 10 mile(s)
2021-12-01 06:00:05 overcast 41° 31° 67% Southeast at 7 MPH 10 mile(s)
2021-12-01 05:00:04 overcast 39° 31° 72% South Southeast at 7 MPH 10 mile(s)
2021-12-01 04:00:05 overcast 38° 27° 64% South Southeast at 5 MPH 10 mile(s)
2021-12-01 03:00:05 overcast 37° 26° 64% Calm 10 mile(s)
2021-12-01 02:00:05 overcast 36° 25° 63% Calm 10 mile(s)
2021-12-01 01:00:06 overcast 36° 24° 61% Calm 10 mile(s)
2021-12-01 00:00:05 overcast 35° 23° 61% Calm 10 mile(s)

Have a question or need help?  Please give us a call at (512) 504-3151 and dial 1 for immediate weather support.
You can also use the chat client located in the lower left hand corner of this page.


©2013 WeatherGuidance | All Rights Reserved